sensor_id;sensor_type;location;lat;lon;timestamp;temperature;humidity
40964;DHT22;26693;51.168;4.138;2022-09-03T00:00:21;21.10;88.60
40964;DHT22;26693;51.168;4.138;2022-09-03T00:01:30;21.10;88.70
40964;DHT22;26693;51.168;4.138;2022-09-03T00:02:50;21.00;88.70
40964;DHT22;26693;51.168;4.138;2022-09-03T00:03:53;20.90;89.00
40964;DHT22;26693;51.168;4.138;2022-09-03T00:05:15;20.90;89.00
40964;DHT22;26693;51.168;4.138;2022-09-03T00:06:21;21.00;89.10
40964;DHT22;26693;51.168;4.138;2022-09-03T00:07:25;21.00;89.00
40964;DHT22;26693;51.168;4.138;2022-09-03T00:08:32;21.10;88.80
40964;DHT22;26693;51.168;4.138;2022-09-03T00:09:40;21.00;88.90
40964;DHT22;26693;51.168;4.138;2022-09-03T00:12:55;21.00;89.00
40964;DHT22;26693;51.168;4.138;2022-09-03T00:14:02;20.90;89.10
40964;DHT22;26693;51.168;4.138;2022-09-03T00:15:08;20.90;89.20
40964;DHT22;26693;51.168;4.138;2022-09-03T00:16:11;20.90;89.20
40964;DHT22;26693;51.168;4.138;2022-09-03T00:17:13;20.90;89.30
40964;DHT22;26693;51.168;4.138;2022-09-03T00:18:16;20.90;89.40
40964;DHT22;26693;51.168;4.138;2022-09-03T00:19:19;20.80;89.40
40964;DHT22;26693;51.168;4.138;2022-09-03T00:21:43;20.90;89.40
40964;DHT22;26693;51.168;4.138;2022-09-03T00:22:48;20.90;89.50
40964;DHT22;26693;51.168;4.138;2022-09-03T00:23:50;20.90;89.60
40964;DHT22;26693;51.168;4.138;2022-09-03T00:24:51;20.80;89.60
40964;DHT22;26693;51.168;4.138;2022-09-03T00:25:57;20.80;89.70
40964;DHT22;26693;51.168;4.138;2022-09-03T00:27:00;20.80;89.60
40964;DHT22;26693;51.168;4.138;2022-09-03T00:28:04;20.80;89.70
40964;DHT22;26693;51.168;4.138;2022-09-03T00:30:13;20.80;89.80
40964;DHT22;26693;51.168;4.138;2022-09-03T00:32:28;20.80;89.70
40964;DHT22;26693;51.168;4.138;2022-09-03T00:33:33;20.80;89.80
40964;DHT22;26693;51.168;4.138;2022-09-03T00:34:35;20.90;89.80
40964;DHT22;26693;51.168;4.138;2022-09-03T00:36:46;20.80;89.80
40964;DHT22;26693;51.168;4.138;2022-09-03T00:37:47;20.80;89.90
40964;DHT22;26693;51.168;4.138;2022-09-03T00:38:48;20.70;90.00
40964;DHT22;26693;51.168;4.138;2022-09-03T00:39:48;20.70;90.00
40964;DHT22;26693;51.168;4.138;2022-09-03T00:46:32;20.70;90.10
40964;DHT22;26693;51.168;4.138;2022-09-03T00:47:39;20.70;90.10
40964;DHT22;26693;51.168;4.138;2022-09-03T00:52:08;20.70;90.30
40964;DHT22;26693;51.168;4.138;2022-09-03T00:55:33;20.60;90.40
40964;DHT22;26693;51.168;4.138;2022-09-03T00:56:41;20.60;90.40
40964;DHT22;26693;51.168;4.138;2022-09-03T00:59:08;20.70;90.40
40964;DHT22;26693;51.168;4.138;2022-09-03T01:00:16;20.70;90.40
40964;DHT22;26693;51.168;4.138;2022-09-03T01:03:38;20.70;90.50
40964;DHT22;26693;51.168;4.138;2022-09-03T01:07:53;20.70;90.40
40964;DHT22;26693;51.168;4.138;2022-09-03T01:14:39;20.70;90.50
40964;DHT22;26693;51.168;4.138;2022-09-03T01:15:48;20.60;90.60
40964;DHT22;26693;51.168;4.138;2022-09-03T01:22:26;20.60;90.70
40964;DHT22;26693;51.168;4.138;2022-09-03T01:26:02;20.70;90.70
40964;DHT22;26693;51.168;4.138;2022-09-03T01:27:20;20.70;90.70
40964;DHT22;26693;51.168;4.138;2022-09-03T01:28:36;20.80;90.70
40964;DHT22;26693;51.168;4.138;2022-09-03T01:29:42;20.70;90.70
40964;DHT22;26693;51.168;4.138;2022-09-03T01:30:53;20.70;90.70
40964;DHT22;26693;51.168;4.138;2022-09-03T01:32:13;20.60;90.90
40964;DHT22;26693;51.168;4.138;2022-09-03T01:33:21;20.60;90.90
40964;DHT22;26693;51.168;4.138;2022-09-03T01:35:50;20.70;90.90
40964;DHT22;26693;51.168;4.138;2022-09-03T01:37:02;20.80;90.90
40964;DHT22;26693;51.168;4.138;2022-09-03T01:39:12;20.60;91.40
40964;DHT22;26693;51.168;4.138;2022-09-03T01:43:52;20.70;91.00
40964;DHT22;26693;51.168;4.138;2022-09-03T01:46:02;20.50;91.10
40964;DHT22;26693;51.168;4.138;2022-09-03T01:50:28;20.50;91.10
40964;DHT22;26693;51.168;4.138;2022-09-03T01:51:33;20.50;91.20
40964;DHT22;26693;51.168;4.138;2022-09-03T01:56:15;20.40;91.30
40964;DHT22;26693;51.168;4.138;2022-09-03T01:58:01;20.50;91.30
40964;DHT22;26693;51.168;4.138;2022-09-03T01:58:57;20.50;91.20
40964;DHT22;26693;51.168;4.138;2022-09-03T02:00:08;20.50;91.30
40964;DHT22;26693;51.168;4.138;2022-09-03T02:01:16;20.50;91.30
40964;DHT22;26693;51.168;4.138;2022-09-03T02:02:21;20.50;91.40
40964;DHT22;26693;51.168;4.138;2022-09-03T02:03:22;20.50;91.40
40964;DHT22;26693;51.168;4.138;2022-09-03T02:04:24;20.50;91.30
40964;DHT22;26693;51.168;4.138;2022-09-03T02:05:26;20.60;91.40
40964;DHT22;26693;51.168;4.138;2022-09-03T02:06:27;20.60;91.20
40964;DHT22;26693;51.168;4.138;2022-09-03T02:07:32;20.50;91.20
40964;DHT22;26693;51.168;4.138;2022-09-03T02:08:33;20.50;91.30
40964;DHT22;26693;51.168;4.138;2022-09-03T02:09:33;20.50;91.60
40964;DHT22;26693;51.168;4.138;2022-09-03T02:11:34;20.40;91.30
40964;DHT22;26693;51.168;4.138;2022-09-03T02:12:37;20.50;91.40
40964;DHT22;26693;51.168;4.138;2022-09-03T02:13:39;20.40;91.40
40964;DHT22;26693;51.168;4.138;2022-09-03T02:14:40;20.30;91.50
40964;DHT22;26693;51.168;4.138;2022-09-03T02:15:42;20.30;91.50
40964;DHT22;26693;51.168;4.138;2022-09-03T02:16:44;20.30;91.50
40964;DHT22;26693;51.168;4.138;2022-09-03T02:17:46;20.30;91.60
40964;DHT22;26693;51.168;4.138;2022-09-03T02:18:49;20.30;91.50
40964;DHT22;26693;51.168;4.138;2022-09-03T02:19:50;20.30;91.50
40964;DHT22;26693;51.168;4.138;2022-09-03T02:20:53;20.20;91.60
40964;DHT22;26693;51.168;4.138;2022-09-03T02:21:54;20.20;91.60
40964;DHT22;26693;51.168;4.138;2022-09-03T02:22:56;20.30;91.60
40964;DHT22;26693;51.168;4.138;2022-09-03T02:23:57;20.30;91.50
40964;DHT22;26693;51.168;4.138;2022-09-03T02:24:57;20.30;91.50
40964;DHT22;26693;51.168;4.138;2022-09-03T02:25:59;20.30;91.50
40964;DHT22;26693;51.168;4.138;2022-09-03T02:27:00;20.30;91.50
40964;DHT22;26693;51.168;4.138;2022-09-03T02:28:02;20.20;91.50
40964;DHT22;26693;51.168;4.138;2022-09-03T02:29:03;20.30;91.50
40964;DHT22;26693;51.168;4.138;2022-09-03T02:30:04;20.30;91.50
40964;DHT22;26693;51.168;4.138;2022-09-03T02:31:05;20.20;91.50
40964;DHT22;26693;51.168;4.138;2022-09-03T02:32:05;20.20;91.50
40964;DHT22;26693;51.168;4.138;2022-09-03T02:33:06;20.10;91.60
40964;DHT22;26693;51.168;4.138;2022-09-03T02:34:06;20.20;91.60
40964;DHT22;26693;51.168;4.138;2022-09-03T02:35:07;20.10;91.50
40964;DHT22;26693;51.168;4.138;2022-09-03T02:36:08;20.10;91.60
40964;DHT22;26693;51.168;4.138;2022-09-03T02:37:13;20.10;91.50
40964;DHT22;26693;51.168;4.138;2022-09-03T02:39:14;20.10;91.60
40964;DHT22;26693;51.168;4.138;2022-09-03T02:40:15;20.10;91.60
40964;DHT22;26693;51.168;4.138;2022-09-03T02:41:16;20.20;91.80
40964;DHT22;26693;51.168;4.138;2022-09-03T02:42:17;20.20;91.50
40964;DHT22;26693;51.168;4.138;2022-09-03T02:43:19;20.10;91.60
40964;DHT22;26693;51.168;4.138;2022-09-03T02:44:25;20.00;91.70
40964;DHT22;26693;51.168;4.138;2022-09-03T02:45:29;20.10;91.80
40964;DHT22;26693;51.168;4.138;2022-09-03T02:46:35;20.10;91.70
40964;DHT22;26693;51.168;4.138;2022-09-03T02:47:37;20.10;91.70
40964;DHT22;26693;51.168;4.138;2022-09-03T02:48:40;20.20;91.70
40964;DHT22;26693;51.168;4.138;2022-09-03T02:49:40;20.20;91.70
40964;DHT22;26693;51.168;4.138;2022-09-03T02:50:41;20.10;91.80
40964;DHT22;26693;51.168;4.138;2022-09-03T02:51:42;20.10;91.80
40964;DHT22;26693;51.168;4.138;2022-09-03T02:52:43;20.20;91.80
40964;DHT22;26693;51.168;4.138;2022-09-03T02:53:44;20.20;91.80
40964;DHT22;26693;51.168;4.138;2022-09-03T02:54:44;20.20;91.80
40964;DHT22;26693;51.168;4.138;2022-09-03T02:55:45;20.20;91.80
40964;DHT22;26693;51.168;4.138;2022-09-03T02:56:45;20.20;91.80
40964;DHT22;26693;51.168;4.138;2022-09-03T02:57:48;20.20;91.90
40964;DHT22;26693;51.168;4.138;2022-09-03T02:58:49;20.10;91.90
40964;DHT22;26693;51.168;4.138;2022-09-03T02:59:49;20.20;92.00
40964;DHT22;26693;51.168;4.138;2022-09-03T03:00:50;20.10;92.00
40964;DHT22;26693;51.168;4.138;2022-09-03T03:01:50;20.20;92.00
40964;DHT22;26693;51.168;4.138;2022-09-03T03:02:51;20.10;92.00
40964;DHT22;26693;51.168;4.138;2022-09-03T03:03:51;20.20;92.00
40964;DHT22;26693;51.168;4.138;2022-09-03T03:04:52;20.20;92.00
40964;DHT22;26693;51.168;4.138;2022-09-03T03:05:58;20.00;92.10
40964;DHT22;26693;51.168;4.138;2022-09-03T03:06:59;20.00;92.20
40964;DHT22;26693;51.168;4.138;2022-09-03T03:08:00;19.90;92.30
40964;DHT22;26693;51.168;4.138;2022-09-03T03:09:00;19.90;92.30
40964;DHT22;26693;51.168;4.138;2022-09-03T03:10:03;19.90;92.30
40964;DHT22;26693;51.168;4.138;2022-09-03T03:11:04;19.80;92.40
40964;DHT22;26693;51.168;4.138;2022-09-03T03:12:05;19.80;92.40
40964;DHT22;26693;51.168;4.138;2022-09-03T03:13:06;19.80;92.40
40964;DHT22;26693;51.168;4.138;2022-09-03T03:14:07;19.90;92.40
40964;DHT22;26693;51.168;4.138;2022-09-03T03:15:07;19.90;92.50
40964;DHT22;26693;51.168;4.138;2022-09-03T03:16:08;19.90;92.40
40964;DHT22;26693;51.168;4.138;2022-09-03T03:17:09;19.90;92.40
40964;DHT22;26693;51.168;4.138;2022-09-03T03:18:09;19.90;92.50
40964;DHT22;26693;51.168;4.138;2022-09-03T03:19:13;20.00;92.40
40964;DHT22;26693;51.168;4.138;2022-09-03T03:20:13;20.00;92.30
40964;DHT22;26693;51.168;4.138;2022-09-03T03:21:15;20.00;92.30
40964;DHT22;26693;51.168;4.138;2022-09-03T03:22:16;20.00;92.30
40964;DHT22;26693;51.168;4.138;2022-09-03T03:23:16;19.90;92.30
40964;DHT22;26693;51.168;4.138;2022-09-03T03:24:17;20.00;92.40
40964;DHT22;26693;51.168;4.138;2022-09-03T03:25:17;19.90;92.50
40964;DHT22;26693;51.168;4.138;2022-09-03T03:26:19;19.80;92.50
40964;DHT22;26693;51.168;4.138;2022-09-03T03:27:20;19.80;92.70
40964;DHT22;26693;51.168;4.138;2022-09-03T03:28:20;19.80;92.70
40964;DHT22;26693;51.168;4.138;2022-09-03T03:29:21;19.70;92.80
40964;DHT22;26693;51.168;4.138;2022-09-03T03:30:21;19.70;92.80
40964;DHT22;26693;51.168;4.138;2022-09-03T03:31:22;19.70;92.80
40964;DHT22;26693;51.168;4.138;2022-09-03T03:32:23;19.70;92.80
40964;DHT22;26693;51.168;4.138;2022-09-03T03:33:24;19.80;92.80
40964;DHT22;26693;51.168;4.138;2022-09-03T03:34:24;19.70;92.80
40964;DHT22;26693;51.168;4.138;2022-09-03T03:35:25;19.70;92.90
40964;DHT22;26693;51.168;4.138;2022-09-03T03:36:26;19.70;92.90
40964;DHT22;26693;51.168;4.138;2022-09-03T03:37:27;19.80;92.90
40964;DHT22;26693;51.168;4.138;2022-09-03T03:38:27;19.80;92.90
40964;DHT22;26693;51.168;4.138;2022-09-03T03:39:28;19.80;92.90
40964;DHT22;26693;51.168;4.138;2022-09-03T03:40:28;19.80;92.90
40964;DHT22;26693;51.168;4.138;2022-09-03T03:41:30;19.80;92.90
40964;DHT22;26693;51.168;4.138;2022-09-03T03:42:34;19.70;93.00
40964;DHT22;26693;51.168;4.138;2022-09-03T03:43:34;19.80;93.00
40964;DHT22;26693;51.168;4.138;2022-09-03T03:44:35;19.80;92.90
40964;DHT22;26693;51.168;4.138;2022-09-03T03:45:35;19.70;93.10
40964;DHT22;26693;51.168;4.138;2022-09-03T03:46:37;19.60;93.20
40964;DHT22;26693;51.168;4.138;2022-09-03T03:47:37;19.60;93.30
40964;DHT22;26693;51.168;4.138;2022-09-03T03:48:38;19.70;93.20
40964;DHT22;26693;51.168;4.138;2022-09-03T03:49:38;19.70;93.20
40964;DHT22;26693;51.168;4.138;2022-09-03T03:50:39;19.70;93.10
40964;DHT22;26693;51.168;4.138;2022-09-03T03:51:39;19.60;93.20
40964;DHT22;26693;51.168;4.138;2022-09-03T03:52:40;19.60;93.30
40964;DHT22;26693;51.168;4.138;2022-09-03T03:53:41;19.60;93.30
40964;DHT22;26693;51.168;4.138;2022-09-03T03:54:41;19.70;93.20
40964;DHT22;26693;51.168;4.138;2022-09-03T03:55:42;19.70;93.30
40964;DHT22;26693;51.168;4.138;2022-09-03T03:56:42;19.70;93.20
40964;DHT22;26693;51.168;4.138;2022-09-03T03:57:43;19.70;93.20
40964;DHT22;26693;51.168;4.138;2022-09-03T03:58:43;19.80;93.20
40964;DHT22;26693;51.168;4.138;2022-09-03T03:59:44;19.80;93.20
40964;DHT22;26693;51.168;4.138;2022-09-03T04:00:44;19.80;93.10
40964;DHT22;26693;51.168;4.138;2022-09-03T04:01:48;19.80;93.20
40964;DHT22;26693;51.168;4.138;2022-09-03T04:02:50;19.80;93.20
40964;DHT22;26693;51.168;4.138;2022-09-03T04:03:50;19.70;93.20
40964;DHT22;26693;51.168;4.138;2022-09-03T04:04:51;19.70;93.20
40964;DHT22;26693;51.168;4.138;2022-09-03T04:05:55;19.60;93.40
40964;DHT22;26693;51.168;4.138;2022-09-03T04:06:56;19.60;93.40
40964;DHT22;26693;51.168;4.138;2022-09-03T04:07:59;19.50;93.50
40964;DHT22;26693;51.168;4.138;2022-09-03T04:09:00;19.50;93.50
40964;DHT22;26693;51.168;4.138;2022-09-03T04:10:00;19.50;93.60
40964;DHT22;26693;51.168;4.138;2022-09-03T04:11:01;19.70;93.40
40964;DHT22;26693;51.168;4.138;2022-09-03T04:12:02;19.90;93.30
40964;DHT22;26693;51.168;4.138;2022-09-03T04:13:04;19.90;93.10
40964;DHT22;26693;51.168;4.138;2022-09-03T04:14:05;19.80;93.20
40964;DHT22;26693;51.168;4.138;2022-09-03T04:15:05;19.70;93.40
40964;DHT22;26693;51.168;4.138;2022-09-03T04:16:07;19.60;93.50
40964;DHT22;26693;51.168;4.138;2022-09-03T04:17:07;19.50;93.60
40964;DHT22;26693;51.168;4.138;2022-09-03T04:18:08;19.50;93.60
40964;DHT22;26693;51.168;4.138;2022-09-03T04:19:08;19.30;93.90
40964;DHT22;26693;51.168;4.138;2022-09-03T04:20:09;19.30;94.10
40964;DHT22;26693;51.168;4.138;2022-09-03T04:21:10;19.30;94.10
40964;DHT22;26693;51.168;4.138;2022-09-03T04:22:11;19.30;94.20
40964;DHT22;26693;51.168;4.138;2022-09-03T04:23:15;19.40;94.10
40964;DHT22;26693;51.168;4.138;2022-09-03T04:24:15;19.40;94.20
40964;DHT22;26693;51.168;4.138;2022-09-03T04:25:16;19.50;94.20
40964;DHT22;26693;51.168;4.138;2022-09-03T04:26:21;19.50;94.40
40964;DHT22;26693;51.168;4.138;2022-09-03T04:27:22;19.50;94.60
40964;DHT22;26693;51.168;4.138;2022-09-03T04:28:22;19.50;94.40
40964;DHT22;26693;51.168;4.138;2022-09-03T04:29:23;19.40;94.60
40964;DHT22;26693;51.168;4.138;2022-09-03T04:30:24;19.30;94.90
40964;DHT22;26693;51.168;4.138;2022-09-03T04:31:25;19.40;94.90
40964;DHT22;26693;51.168;4.138;2022-09-03T04:32:26;19.40;94.80
40964;DHT22;26693;51.168;4.138;2022-09-03T04:33:45;19.40;94.90
40964;DHT22;26693;51.168;4.138;2022-09-03T04:34:45;19.50;94.80
40964;DHT22;26693;51.168;4.138;2022-09-03T04:35:46;19.60;94.80
40964;DHT22;26693;51.168;4.138;2022-09-03T04:36:46;19.60;95.10
40964;DHT22;26693;51.168;4.138;2022-09-03T04:37:47;19.70;95.00
40964;DHT22;26693;51.168;4.138;2022-09-03T04:38:49;19.60;95.20
40964;DHT22;26693;51.168;4.138;2022-09-03T04:39:49;19.60;95.20
40964;DHT22;26693;51.168;4.138;2022-09-03T04:40:50;19.60;95.10
40964;DHT22;26693;51.168;4.138;2022-09-03T04:41:51;19.70;95.50
40964;DHT22;26693;51.168;4.138;2022-09-03T04:42:55;19.60;95.50
40964;DHT22;26693;51.168;4.138;2022-09-03T04:43:56;19.70;95.50
40964;DHT22;26693;51.168;4.138;2022-09-03T04:44:57;19.70;95.50
40964;DHT22;26693;51.168;4.138;2022-09-03T04:45:58;19.70;95.70
40964;DHT22;26693;51.168;4.138;2022-09-03T04:46:59;19.70;95.80
40964;DHT22;26693;51.168;4.138;2022-09-03T04:48:00;19.60;95.80
40964;DHT22;26693;51.168;4.138;2022-09-03T04:49:00;19.60;96.00
40964;DHT22;26693;51.168;4.138;2022-09-03T04:50:02;19.70;95.90
40964;DHT22;26693;51.168;4.138;2022-09-03T04:51:06;19.80;95.90
40964;DHT22;26693;51.168;4.138;2022-09-03T04:52:07;19.80;95.90
40964;DHT22;26693;51.168;4.138;2022-09-03T04:53:09;19.70;96.10
40964;DHT22;26693;51.168;4.138;2022-09-03T04:54:10;19.70;96.50
40964;DHT22;26693;51.168;4.138;2022-09-03T04:55:10;19.70;96.30
40964;DHT22;26693;51.168;4.138;2022-09-03T04:56:21;19.70;96.30
40964;DHT22;26693;51.168;4.138;2022-09-03T04:57:22;19.80;96.40
40964;DHT22;26693;51.168;4.138;2022-09-03T04:58:22;19.80;96.70
40964;DHT22;26693;51.168;4.138;2022-09-03T04:59:23;19.90;96.60
40964;DHT22;26693;51.168;4.138;2022-09-03T05:00:23;19.80;96.80
40964;DHT22;26693;51.168;4.138;2022-09-03T05:01:25;19.80;97.00
40964;DHT22;26693;51.168;4.138;2022-09-03T05:02:26;19.80;97.30
40964;DHT22;26693;51.168;4.138;2022-09-03T05:03:26;19.70;97.20
40964;DHT22;26693;51.168;4.138;2022-09-03T05:04:28;19.80;97.40
40964;DHT22;26693;51.168;4.138;2022-09-03T05:05:28;19.90;97.40
40964;DHT22;26693;51.168;4.138;2022-09-03T05:06:29;19.90;97.40
40964;DHT22;26693;51.168;4.138;2022-09-03T05:07:30;19.90;97.50
40964;DHT22;26693;51.168;4.138;2022-09-03T05:08:37;19.80;97.60
40964;DHT22;26693;51.168;4.138;2022-09-03T05:09:39;19.80;97.80
40964;DHT22;26693;51.168;4.138;2022-09-03T05:10:39;19.90;97.90
40964;DHT22;26693;51.168;4.138;2022-09-03T05:11:40;19.80;98.10
40964;DHT22;26693;51.168;4.138;2022-09-03T05:12:40;19.80;98.20
40964;DHT22;26693;51.168;4.138;2022-09-03T05:13:41;19.70;98.40
40964;DHT22;26693;51.168;4.138;2022-09-03T05:14:42;19.90;98.40
40964;DHT22;26693;51.168;4.138;2022-09-03T05:15:42;19.90;98.40
40964;DHT22;26693;51.168;4.138;2022-09-03T05:16:44;19.90;98.70
40964;DHT22;26693;51.168;4.138;2022-09-03T05:17:45;19.90;98.50
40964;DHT22;26693;51.168;4.138;2022-09-03T05:18:45;19.90;98.30
40964;DHT22;26693;51.168;4.138;2022-09-03T05:19:46;19.90;98.30
40964;DHT22;26693;51.168;4.138;2022-09-03T05:20:47;19.90;98.30
40964;DHT22;26693;51.168;4.138;2022-09-03T05:21:47;19.90;98.40
40964;DHT22;26693;51.168;4.138;2022-09-03T05:22:48;19.80;98.00
40964;DHT22;26693;51.168;4.138;2022-09-03T05:23:49;19.80;98.00
40964;DHT22;26693;51.168;4.138;2022-09-03T05:24:50;19.70;97.90
40964;DHT22;26693;51.168;4.138;2022-09-03T05:25:54;19.70;98.10
40964;DHT22;26693;51.168;4.138;2022-09-03T05:26:57;19.70;97.90
40964;DHT22;26693;51.168;4.138;2022-09-03T05:27:58;19.80;97.90
40964;DHT22;26693;51.168;4.138;2022-09-03T05:28:59;19.90;97.70
40964;DHT22;26693;51.168;4.138;2022-09-03T05:30:00;19.90;97.50
40964;DHT22;26693;51.168;4.138;2022-09-03T05:31:10;19.90;97.40
40964;DHT22;26693;51.168;4.138;2022-09-03T05:32:11;20.10;97.20
40964;DHT22;26693;51.168;4.138;2022-09-03T05:33:12;20.10;97.10
40964;DHT22;26693;51.168;4.138;2022-09-03T05:34:15;20.00;97.10
40964;DHT22;26693;51.168;4.138;2022-09-03T05:35:15;20.00;97.00
40964;DHT22;26693;51.168;4.138;2022-09-03T05:36:17;20.00;96.90
40964;DHT22;26693;51.168;4.138;2022-09-03T05:37:18;20.00;97.00
40964;DHT22;26693;51.168;4.138;2022-09-03T05:38:18;20.00;96.90
40964;DHT22;26693;51.168;4.138;2022-09-03T05:39:19;20.00;96.80
40964;DHT22;26693;51.168;4.138;2022-09-03T05:40:19;20.00;96.60
40964;DHT22;26693;51.168;4.138;2022-09-03T05:41:20;20.00;96.70
40964;DHT22;26693;51.168;4.138;2022-09-03T05:42:21;20.00;96.60
40964;DHT22;26693;51.168;4.138;2022-09-03T05:43:22;19.90;96.70
40964;DHT22;26693;51.168;4.138;2022-09-03T05:44:22;20.00;96.50
40964;DHT22;26693;51.168;4.138;2022-09-03T05:45:23;20.00;96.40
40964;DHT22;26693;51.168;4.138;2022-09-03T05:46:26;20.00;96.30
40964;DHT22;26693;51.168;4.138;2022-09-03T05:47:30;20.00;96.30
40964;DHT22;26693;51.168;4.138;2022-09-03T05:48:32;20.00;96.20
40964;DHT22;26693;51.168;4.138;2022-09-03T05:49:33;19.80;96.40
40964;DHT22;26693;51.168;4.138;2022-09-03T05:50:33;19.90;96.40
40964;DHT22;26693;51.168;4.138;2022-09-03T05:51:35;20.00;96.30
40964;DHT22;26693;51.168;4.138;2022-09-03T05:52:36;19.90;96.20
40964;DHT22;26693;51.168;4.138;2022-09-03T05:53:37;19.90;96.20
40964;DHT22;26693;51.168;4.138;2022-09-03T05:54:38;20.00;96.20
40964;DHT22;26693;51.168;4.138;2022-09-03T05:55:39;20.20;96.10
40964;DHT22;26693;51.168;4.138;2022-09-03T05:56:39;20.50;95.90
40964;DHT22;26693;51.168;4.138;2022-09-03T05:57:41;20.80;95.40
40964;DHT22;26693;51.168;4.138;2022-09-03T05:58:43;21.00;95.10
40964;DHT22;26693;51.168;4.138;2022-09-03T05:59:44;21.20;94.80
40964;DHT22;26693;51.168;4.138;2022-09-03T06:00:44;21.40;94.60
40964;DHT22;26693;51.168;4.138;2022-09-03T06:01:45;21.40;94.50
40964;DHT22;26693;51.168;4.138;2022-09-03T06:02:52;21.50;94.40
40964;DHT22;26693;51.168;4.138;2022-09-03T06:03:54;21.30;94.40
40964;DHT22;26693;51.168;4.138;2022-09-03T06:04:54;21.10;94.70
40964;DHT22;26693;51.168;4.138;2022-09-03T06:05:55;21.20;94.70
40964;DHT22;26693;51.168;4.138;2022-09-03T06:06:55;21.10;94.50
40964;DHT22;26693;51.168;4.138;2022-09-03T06:07:56;20.60;94.80
40964;DHT22;26693;51.168;4.138;2022-09-03T06:08:57;20.50;95.20
40964;DHT22;26693;51.168;4.138;2022-09-03T06:09:58;20.60;95.00
40964;DHT22;26693;51.168;4.138;2022-09-03T06:10:59;20.40;95.10
40964;DHT22;26693;51.168;4.138;2022-09-03T06:12:00;20.20;95.20
40964;DHT22;26693;51.168;4.138;2022-09-03T06:13:00;20.10;95.30
40964;DHT22;26693;51.168;4.138;2022-09-03T06:14:04;20.00;95.50
40964;DHT22;26693;51.168;4.138;2022-09-03T06:15:05;20.10;95.50
40964;DHT22;26693;51.168;4.138;2022-09-03T06:16:06;19.90;95.50
40964;DHT22;26693;51.168;4.138;2022-09-03T06:17:06;19.90;95.90
40964;DHT22;26693;51.168;4.138;2022-09-03T06:18:10;19.90;95.60
40964;DHT22;26693;51.168;4.138;2022-09-03T06:19:11;20.00;95.60
40964;DHT22;26693;51.168;4.138;2022-09-03T06:20:12;20.40;95.40
40964;DHT22;26693;51.168;4.138;2022-09-03T06:21:12;20.50;94.90
40964;DHT22;26693;51.168;4.138;2022-09-03T06:22:14;20.40;94.90
40964;DHT22;26693;51.168;4.138;2022-09-03T06:23:15;20.40;94.90
40964;DHT22;26693;51.168;4.138;2022-09-03T06:24:17;20.30;95.10
40964;DHT22;26693;51.168;4.138;2022-09-03T06:25:18;20.40;95.10
40964;DHT22;26693;51.168;4.138;2022-09-03T06:26:18;20.30;95.20
40964;DHT22;26693;51.168;4.138;2022-09-03T06:27:19;20.50;95.00
40964;DHT22;26693;51.168;4.138;2022-09-03T06:28:22;20.40;95.10
40964;DHT22;26693;51.168;4.138;2022-09-03T06:29:22;20.50;95.10
40964;DHT22;26693;51.168;4.138;2022-09-03T06:30:23;20.50;95.10
40964;DHT22;26693;51.168;4.138;2022-09-03T06:31:25;20.40;95.20
40964;DHT22;26693;51.168;4.138;2022-09-03T06:32:26;20.20;95.50
40964;DHT22;26693;51.168;4.138;2022-09-03T06:33:29;20.40;95.70
40964;DHT22;26693;51.168;4.138;2022-09-03T06:34:30;20.70;95.30
40964;DHT22;26693;51.168;4.138;2022-09-03T06:35:31;20.80;95.20
40964;DHT22;26693;51.168;4.138;2022-09-03T06:36:31;20.80;95.00
40964;DHT22;26693;51.168;4.138;2022-09-03T06:37:32;20.50;95.30
40964;DHT22;26693;51.168;4.138;2022-09-03T06:38:38;20.30;95.60
40964;DHT22;26693;51.168;4.138;2022-09-03T06:39:38;20.20;96.00
40964;DHT22;26693;51.168;4.138;2022-09-03T06:40:39;20.50;95.90
40964;DHT22;26693;51.168;4.138;2022-09-03T06:41:39;20.50;95.70
40964;DHT22;26693;51.168;4.138;2022-09-03T06:42:40;20.40;95.80
40964;DHT22;26693;51.168;4.138;2022-09-03T06:43:41;20.30;95.80
40964;DHT22;26693;51.168;4.138;2022-09-03T06:44:42;20.10;96.20
40964;DHT22;26693;51.168;4.138;2022-09-03T06:45:51;20.00;96.40
40964;DHT22;26693;51.168;4.138;2022-09-03T06:46:52;20.00;96.50
40964;DHT22;26693;51.168;4.138;2022-09-03T06:47:52;19.90;96.60
40964;DHT22;26693;51.168;4.138;2022-09-03T06:48:53;19.90;96.50
40964;DHT22;26693;51.168;4.138;2022-09-03T06:49:54;19.90;96.50
40964;DHT22;26693;51.168;4.138;2022-09-03T06:50:58;19.90;96.50
40964;DHT22;26693;51.168;4.138;2022-09-03T06:51:59;19.90;96.50
40964;DHT22;26693;51.168;4.138;2022-09-03T06:52:59;19.90;96.60
40964;DHT22;26693;51.168;4.138;2022-09-03T06:54:00;20.00;96.60
40964;DHT22;26693;51.168;4.138;2022-09-03T06:55:01;20.00;96.60
40964;DHT22;26693;51.168;4.138;2022-09-03T06:56:04;20.10;96.60
40964;DHT22;26693;51.168;4.138;2022-09-03T06:57:04;20.00;96.60
40964;DHT22;26693;51.168;4.138;2022-09-03T06:58:05;20.00;96.60
40964;DHT22;26693;51.168;4.138;2022-09-03T06:59:07;20.00;96.70
40964;DHT22;26693;51.168;4.138;2022-09-03T07:00:08;20.00;96.80
40964;DHT22;26693;51.168;4.138;2022-09-03T07:01:09;20.00;97.00
40964;DHT22;26693;51.168;4.138;2022-09-03T07:02:10;20.00;97.10
40964;DHT22;26693;51.168;4.138;2022-09-03T07:03:11;20.10;97.30
40964;DHT22;26693;51.168;4.138;2022-09-03T07:04:14;19.90;97.10
40964;DHT22;26693;51.168;4.138;2022-09-03T07:05:19;19.80;97.30
40964;DHT22;26693;51.168;4.138;2022-09-03T07:06:19;19.80;97.00
40964;DHT22;26693;51.168;4.138;2022-09-03T07:07:20;19.80;97.10
40964;DHT22;26693;51.168;4.138;2022-09-03T07:08:21;19.80;97.20
40964;DHT22;26693;51.168;4.138;2022-09-03T07:09:21;19.70;97.20
40964;DHT22;26693;51.168;4.138;2022-09-03T07:10:22;19.80;97.30
40964;DHT22;26693;51.168;4.138;2022-09-03T07:11:23;19.80;97.20
40964;DHT22;26693;51.168;4.138;2022-09-03T07:12:25;19.80;97.20
40964;DHT22;26693;51.168;4.138;2022-09-03T07:13:25;19.80;97.40
40964;DHT22;26693;51.168;4.138;2022-09-03T07:14:26;19.80;97.30
40964;DHT22;26693;51.168;4.138;2022-09-03T07:15:27;19.70;97.30
40964;DHT22;26693;51.168;4.138;2022-09-03T07:16:28;19.70;97.40
40964;DHT22;26693;51.168;4.138;2022-09-03T07:17:29;19.60;97.40
40964;DHT22;26693;51.168;4.138;2022-09-03T07:18:30;19.70;97.50
40964;DHT22;26693;51.168;4.138;2022-09-03T07:19:31;19.70;97.50
40964;DHT22;26693;51.168;4.138;2022-09-03T07:20:32;19.70;97.50
40964;DHT22;26693;51.168;4.138;2022-09-03T07:21:33;19.80;97.40
40964;DHT22;26693;51.168;4.138;2022-09-03T07:22:35;19.70;97.50
40964;DHT22;26693;51.168;4.138;2022-09-03T07:23:36;19.70;97.60
40964;DHT22;26693;51.168;4.138;2022-09-03T07:24:37;19.70;97.60
40964;DHT22;26693;51.168;4.138;2022-09-03T07:25:37;19.70;97.60
40964;DHT22;26693;51.168;4.138;2022-09-03T07:26:39;19.70;97.60
40964;DHT22;26693;51.168;4.138;2022-09-03T07:27:40;19.70;97.80